createdAt,value
2018-04-27T00:01:35.693Z,2.37
2018-04-27T00:04:04.590Z,2.20
2018-04-27T00:06:33.484Z,2.40
2018-04-27T00:09:02.404Z,2.60
2018-04-27T00:11:30.526Z,2.15
2018-04-27T00:14:00.182Z,2.37
2018-04-27T00:16:28.312Z,3.03
2018-04-27T00:18:57.252Z,2.67
2018-04-27T00:21:25.409Z,2.20
2018-04-27T00:23:53.593Z,2.28
2018-04-27T00:26:21.753Z,2.50
2018-04-27T00:28:49.905Z,2.40
2018-04-27T00:31:18.088Z,2.50
2018-04-27T00:33:46.985Z,2.60
2018-04-27T00:36:15.188Z,2.50
2018-04-27T00:38:43.317Z,2.60
2018-04-27T00:41:12.219Z,2.30
2018-04-27T00:43:40.416Z,2.45
2018-04-27T00:46:08.557Z,2.50
2018-04-27T00:48:37.501Z,2.60
2018-04-27T00:51:05.653Z,2.92
2018-04-27T00:53:33.779Z,2.37
2018-04-27T00:56:03.432Z,2.37
2018-04-27T00:58:31.599Z,2.70
2018-04-27T01:00:59.783Z,3.03
2018-04-27T01:03:27.928Z,2.65
2018-04-27T01:05:56.842Z,2.95
2018-04-27T01:08:24.980Z,3.28
2018-04-27T01:10:53.914Z,2.67
2018-04-27T01:13:22.064Z,2.85
2018-04-27T01:15:50.218Z,2.92
2018-04-27T01:18:19.114Z,3.10
2018-04-27T01:20:48.038Z,3.17
2018-04-27T01:23:16.160Z,2.95
2018-04-27T01:25:45.828Z,3.30
2018-04-27T01:28:13.978Z,2.95
2018-04-27T01:30:42.247Z,2.97
2018-04-27T01:33:11.151Z,2.65
2018-04-27T01:35:39.290Z,3.30
2018-04-27T01:38:07.428Z,3.35
2018-04-27T01:40:35.558Z,3.60
2018-04-27T01:43:03.758Z,3.22
2018-04-27T01:45:31.908Z,2.92
2018-04-27T01:48:00.036Z,3.30
2018-04-27T01:50:28.200Z,3.30
2018-04-27T01:52:56.358Z,3.83
2018-04-27T01:55:24.492Z,3.65
2018-04-27T01:57:52.645Z,3.97
2018-04-27T02:00:20.859Z,4.05
2018-04-27T02:02:49.053Z,4.05
2018-04-27T02:05:17.195Z,3.85
2018-04-27T02:07:45.394Z,4.20
2018-04-27T02:10:13.541Z,4.07
2018-04-27T02:12:41.685Z,4.40
2018-04-27T02:15:10.566Z,4.10
2018-04-27T02:17:39.448Z,4.68
2018-04-27T02:20:07.578Z,3.75
2018-04-27T02:22:35.708Z,3.70
2018-04-27T02:25:04.588Z,3.80
2018-04-27T02:27:32.704Z,4.18
2018-04-27T02:30:00.827Z,3.92
2018-04-27T02:32:28.967Z,3.83
2018-04-27T02:34:57.090Z,3.80
2018-04-27T02:37:25.293Z,4.37
2018-04-27T02:39:53.418Z,4.00
2018-04-27T02:42:21.544Z,4.55
2018-04-27T02:44:49.662Z,4.28
2018-04-27T02:47:17.783Z,4.32
2018-04-27T02:49:45.931Z,4.60
2018-04-27T02:52:14.829Z,5.07
2018-04-27T02:54:43.725Z,4.90
2018-04-27T02:57:11.859Z,4.80
2018-04-27T02:59:39.973Z,4.70
2018-04-27T03:02:08.105Z,4.72
2018-04-27T03:04:36.215Z,5.20
2018-04-27T03:07:04.338Z,4.95
2018-04-27T03:09:32.479Z,5.60
2018-04-27T03:12:00.634Z,4.87
2018-04-27T03:14:28.742Z,4.65
2018-04-27T03:16:56.854Z,4.28
2018-04-27T03:19:25.753Z,5.00
2018-04-27T03:21:54.677Z,4.70
2018-04-27T03:24:22.796Z,4.53
2018-04-27T03:26:50.907Z,4.50
2018-04-27T03:29:19.071Z,4.68
2018-04-27T03:31:47.951Z,4.53
2018-04-27T03:34:16.948Z,4.60
2018-04-27T03:36:44.991Z,4.75
2018-04-27T03:39:13.105Z,4.50
2018-04-27T03:41:41.240Z,4.90
2018-04-27T03:44:09.368Z,4.80
2018-04-27T03:46:37.522Z,4.47
2018-04-27T03:49:05.649Z,4.68
2018-04-27T03:51:33.800Z,4.40
2018-04-27T03:54:01.919Z,4.40
2018-04-27T03:56:30.808Z,4.62
2018-04-27T03:58:59.699Z,4.15
2018-04-27T04:01:40.488Z,4.82
2018-04-27T04:04:20.508Z,4.00
2018-04-27T04:06:49.436Z,4.30
2018-04-27T04:09:17.554Z,4.15
2018-04-27T04:11:45.686Z,3.78
2018-04-27T04:14:13.834Z,4.20
2018-04-27T04:16:41.960Z,4.10
2018-04-27T04:19:10.057Z,4.07
2018-04-27T04:21:38.223Z,4.05
2018-04-27T04:24:06.439Z,4.30
2018-04-27T04:26:34.567Z,4.05
2018-04-27T04:29:02.694Z,4.37
2018-04-27T04:31:30.803Z,4.12
2018-04-27T04:33:59.020Z,3.80
2018-04-27T04:36:27.903Z,4.35
2018-04-27T04:38:56.778Z,4.15
2018-04-27T04:41:25.683Z,3.87
2018-04-27T04:43:54.571Z,3.92
2018-04-27T04:46:23.485Z,3.85
2018-04-27T04:48:51.607Z,3.70
2018-04-27T04:51:19.715Z,4.07
2018-04-27T04:53:48.618Z,4.20
2018-04-27T04:56:16.730Z,3.83
2018-04-27T04:58:44.839Z,3.85
2018-04-27T05:01:13.761Z,3.50
2018-04-27T05:03:41.915Z,3.55
2018-04-27T05:06:10.791Z,3.92
2018-04-27T05:08:39.699Z,4.05
2018-04-27T05:11:07.847Z,3.92
2018-04-27T05:13:36.765Z,3.67
2018-04-27T05:16:04.899Z,3.28
2018-04-27T05:18:53.715Z,3.78
2018-04-27T05:21:21.858Z,3.42
2018-04-27T05:23:50.751Z,3.22
2018-04-27T05:26:18.933Z,3.10
2018-04-27T05:28:47.053Z,3.58
2018-04-27T05:31:23.108Z,3.40
2018-04-27T05:33:51.236Z,3.00
2018-04-27T05:36:20.084Z,3.45
2018-04-27T05:38:48.300Z,3.30
2018-04-27T05:41:16.472Z,3.33
2018-04-27T05:43:44.626Z,3.60
2018-04-27T05:46:13.515Z,3.70
2018-04-27T05:48:42.398Z,3.80
2018-04-27T05:51:10.510Z,3.10
2018-04-27T05:53:38.631Z,3.08
2018-04-27T05:56:06.745Z,3.10
2018-04-27T05:58:34.847Z,2.80
2018-04-27T06:01:02.977Z,3.30
2018-04-27T06:06:31.380Z,3.15
2018-04-27T06:08:59.531Z,2.83
2018-04-27T06:11:27.652Z,2.87
2018-04-27T06:13:55.780Z,3.20
2018-04-27T06:16:24.695Z,3.45
2018-04-27T06:18:52.816Z,3.62
2018-04-27T06:21:20.956Z,2.85
2018-04-27T06:23:49.092Z,3.17
2018-04-27T06:26:18.007Z,2.70
2018-04-27T06:28:48.031Z,3.25
2018-04-27T06:31:16.185Z,3.03
2018-04-27T06:33:44.323Z,3.12
2018-04-27T06:36:12.444Z,2.75
2018-04-27T06:38:40.563Z,2.45
2018-04-27T06:41:08.708Z,2.95
2018-04-27T06:43:36.839Z,2.85
2018-04-27T06:46:04.976Z,3.08
2018-04-27T06:48:33.210Z,2.90
2018-04-27T06:51:01.387Z,2.60
2018-04-27T06:53:29.518Z,2.80
2018-04-27T06:55:58.534Z,2.70
2018-04-27T06:58:26.713Z,2.60
2018-04-27T07:00:54.848Z,2.78
2018-04-27T07:03:22.996Z,3.10
2018-04-27T07:05:51.136Z,2.97
2018-04-27T07:08:19.303Z,2.47
2018-04-27T07:10:47.489Z,2.80
2018-04-27T07:13:15.649Z,2.90
2018-04-27T07:15:43.811Z,2.40
2018-04-27T07:18:12.839Z,2.70
2018-04-27T07:20:40.963Z,2.40
2018-04-27T07:23:09.903Z,3.00
2018-04-27T07:25:38.011Z,2.30
2018-04-27T07:28:06.133Z,2.67
2018-04-27T07:30:34.271Z,2.57
2018-04-27T07:33:02.407Z,2.30
2018-04-27T07:35:30.542Z,2.57
2018-04-27T07:37:59.457Z,2.30
2018-04-27T07:40:27.601Z,2.33
2018-04-27T07:42:56.487Z,2.53
2018-04-27T07:45:25.399Z,2.30
2018-04-27T07:47:53.512Z,2.23
2018-04-27T07:50:21.629Z,2.40
2018-04-27T07:52:49.786Z,2.27
2018-04-27T07:55:18.757Z,2.50
2018-04-27T07:57:46.876Z,2.50
2018-04-27T08:00:14.999Z,3.10
2018-04-27T08:02:43.132Z,2.40
2018-04-27T08:05:11.296Z,2.33
2018-04-27T08:07:40.204Z,2.30
2018-04-27T08:10:08.316Z,2.53
2018-04-27T08:12:36.527Z,2.33
2018-04-27T08:15:04.702Z,2.20
2018-04-27T08:17:32.888Z,2.50
2018-04-27T08:20:01.014Z,2.60
2018-04-27T08:22:29.154Z,2.40
2018-04-27T08:24:57.296Z,2.23
2018-04-27T08:27:25.436Z,2.30
2018-04-27T08:29:53.557Z,2.40
2018-04-27T08:32:21.723Z,2.20
2018-04-27T08:34:50.712Z,2.60
2018-04-27T08:37:18.839Z,2.23
2018-04-27T08:39:46.971Z,2.60
2018-04-27T08:42:15.146Z,2.60
2018-04-27T08:44:43.262Z,2.27
2018-04-27T08:47:11.396Z,2.30
2018-04-27T08:49:39.524Z,2.77
2018-04-27T08:52:08.462Z,2.40
2018-04-27T08:54:36.630Z,2.23
2018-04-27T08:57:04.772Z,2.30
2018-04-27T08:59:33.664Z,2.60
2018-04-27T09:02:02.578Z,2.30
2018-04-27T09:04:30.695Z,2.47
2018-04-27T09:06:58.852Z,2.40
2018-04-27T09:09:26.984Z,2.30
2018-04-27T09:11:55.102Z,2.20
2018-04-27T09:14:23.336Z,2.37
2018-04-27T09:16:51.472Z,2.67
2018-04-27T09:19:19.608Z,2.63
2018-04-27T09:21:47.773Z,2.80
2018-04-27T09:24:15.912Z,2.97
2018-04-27T09:26:44.805Z,2.80
2018-04-27T09:29:13.696Z,2.47
2018-04-27T09:31:42.571Z,2.33
2018-04-27T09:34:10.772Z,2.27
2018-04-27T09:36:38.956Z,2.20
2018-04-27T09:39:07.072Z,2.27
2018-04-27T09:41:35.183Z,2.30
2018-04-27T09:44:04.091Z,2.27
2018-04-27T09:46:32.986Z,2.20
2018-04-27T09:49:01.150Z,2.20
2018-04-27T09:51:29.278Z,2.03
2018-04-27T09:53:57.435Z,2.23
2018-04-27T09:56:25.567Z,2.20
2018-04-27T09:58:53.735Z,2.00
2018-04-27T10:01:21.869Z,1.97
2018-04-27T10:03:49.998Z,2.23
2018-04-27T10:06:18.142Z,2.00
2018-04-27T10:08:47.046Z,1.90
2018-04-27T10:11:15.924Z,2.20
2018-04-27T10:13:44.812Z,2.47
2018-04-27T10:16:13.718Z,2.30
2018-04-27T10:18:42.609Z,1.97
2018-04-27T10:21:11.473Z,2.03
2018-04-27T10:23:39.605Z,2.27
2018-04-27T10:26:07.751Z,1.83
2018-04-27T10:28:35.910Z,2.13
2018-04-27T10:31:04.859Z,2.20
2018-04-27T10:33:32.941Z,1.70
2018-04-27T10:36:01.154Z,2.00
2018-04-27T10:38:29.278Z,2.00
2018-04-27T10:40:57.430Z,2.00
2018-04-27T10:43:25.597Z,2.00
2018-04-27T10:45:53.855Z,2.03
2018-04-27T10:48:22.873Z,2.20
2018-04-27T10:50:50.975Z,2.23
2018-04-27T10:53:19.089Z,2.20
2018-04-27T10:55:47.387Z,2.20
2018-04-27T10:58:15.521Z,2.10
2018-04-27T11:00:44.407Z,2.30
2018-04-27T11:03:12.528Z,2.20
2018-04-27T11:05:40.676Z,2.20
2018-04-27T11:08:09.697Z,2.13
2018-04-27T11:10:37.856Z,2.33
2018-04-27T11:13:06.724Z,2.00
2018-04-27T11:15:35.623Z,2.10
2018-04-27T11:18:03.749Z,1.90
2018-04-27T11:20:31.883Z,2.23
2018-04-27T11:23:00.001Z,1.70
2018-04-27T11:25:28.139Z,2.00
2018-04-27T11:27:56.301Z,2.20
2018-04-27T11:30:24.433Z,1.80
2018-04-27T11:32:52.575Z,2.30
2018-04-27T11:35:20.723Z,1.70
2018-04-27T11:37:49.603Z,1.93
2018-04-27T11:40:17.720Z,1.80
2018-04-27T11:42:45.841Z,2.20
2018-04-27T11:45:14.738Z,2.00
2018-04-27T11:47:43.705Z,2.10
2018-04-27T11:50:11.820Z,2.03
2018-04-27T11:52:39.927Z,2.13
2018-04-27T11:55:08.160Z,1.93
2018-04-27T11:57:36.303Z,2.00
2018-04-27T12:00:05.191Z,2.07
2018-04-27T12:02:34.081Z,1.97
2018-04-27T12:05:02.980Z,2.30
2018-04-27T12:07:31.893Z,2.30
2018-04-27T12:10:00.019Z,2.30
2018-04-27T12:12:28.140Z,2.20
2018-04-27T12:14:56.268Z,2.03
2018-04-27T12:17:24.423Z,2.20
2018-04-27T12:19:52.556Z,2.40
2018-04-27T12:22:20.749Z,2.67
2018-04-27T12:24:48.863Z,2.17
2018-04-27T12:27:17.050Z,2.40
2018-04-27T12:29:45.267Z,2.10
2018-04-27T12:32:13.375Z,2.40
2018-04-27T12:34:41.496Z,2.33
2018-04-27T12:37:09.672Z,2.80
2018-04-27T12:39:37.819Z,2.43
2018-04-27T12:42:05.932Z,2.53
2018-04-27T12:44:34.090Z,2.43
2018-04-27T12:47:02.206Z,2.60
2018-04-27T12:49:30.450Z,2.90
2018-04-27T12:51:58.589Z,2.40
2018-04-27T12:54:26.784Z,2.63
2018-04-27T12:56:54.920Z,2.30
2018-04-27T12:59:23.096Z,2.60
2018-04-27T13:01:52.735Z,2.23
2018-04-27T13:04:20.863Z,2.33
2018-04-27T13:06:49.006Z,2.47
2018-04-27T13:09:17.178Z,2.33
2018-04-27T13:11:45.294Z,2.30
2018-04-27T13:14:13.428Z,2.47
2018-04-27T13:16:41.601Z,1.97
2018-04-27T13:19:09.882Z,2.13
2018-04-27T13:21:38.612Z,2.23
2018-04-27T13:24:06.816Z,2.07
2018-04-27T13:26:35.054Z,2.20
2018-04-27T13:29:03.133Z,2.27
2018-04-27T13:31:31.265Z,2.07
2018-04-27T13:33:59.420Z,2.50
2018-04-27T13:36:27.588Z,2.00
2018-04-27T13:38:55.732Z,1.87
2018-04-27T13:41:23.860Z,2.00
2018-04-27T13:43:52.032Z,1.87
2018-04-27T13:46:20.161Z,1.90
2018-04-27T13:48:48.318Z,2.17
2018-04-27T13:51:16.440Z,2.10
2018-04-27T13:53:44.572Z,1.90
2018-04-27T13:56:12.720Z,1.80
2018-04-27T13:58:40.867Z,2.07
2018-04-27T14:01:09.048Z,1.90
2018-04-27T14:03:37.147Z,1.80
2018-04-27T14:06:05.288Z,1.90
2018-04-27T14:08:33.467Z,1.87
2018-04-27T14:11:01.624Z,1.83
2018-04-27T14:13:29.769Z,1.97
2018-04-27T14:15:58.659Z,2.00
2018-04-27T14:18:26.784Z,1.87
2018-04-27T14:20:55.172Z,2.00
2018-04-27T14:23:23.317Z,1.63
2018-04-27T14:25:51.466Z,1.97
2018-04-27T14:28:20.367Z,1.60
2018-04-27T14:30:48.508Z,1.77
2018-04-27T14:33:16.623Z,1.80
2018-04-27T14:35:44.753Z,1.93
2018-04-27T14:38:12.855Z,1.80
2018-04-27T14:40:41.015Z,1.93
2018-04-27T14:43:09.899Z,1.73
2018-04-27T14:45:38.802Z,2.00
2018-04-27T14:48:07.697Z,1.80
2018-04-27T14:50:35.861Z,1.80
2018-04-27T14:53:04.754Z,1.80
2018-04-27T14:55:33.649Z,2.17
2018-04-27T14:58:02.549Z,1.70
2018-04-27T15:00:30.846Z,1.80
2018-04-27T15:02:58.953Z,1.70
2018-04-27T15:05:27.103Z,2.10
2018-04-27T15:07:55.260Z,1.90
2018-04-27T15:10:23.428Z,1.93
2018-04-27T15:12:51.551Z,1.93
2018-04-27T15:15:19.692Z,1.93
2018-04-27T15:17:47.948Z,2.03
2018-04-27T15:20:16.080Z,1.90
2018-04-27T15:22:44.197Z,1.83
2018-04-27T15:25:12.332Z,2.20
2018-04-27T15:27:40.470Z,1.87
2018-04-27T15:30:08.713Z,1.70
2018-04-27T15:32:37.600Z,2.40
2018-04-27T15:35:05.729Z,1.90
2018-04-27T15:37:33.976Z,1.90
2018-04-27T15:40:02.222Z,1.90
2018-04-27T15:42:30.284Z,2.13
2018-04-27T15:44:59.174Z,1.70
2018-04-27T15:47:28.205Z,1.80
2018-04-27T15:49:56.314Z,1.73
2018-04-27T15:52:24.434Z,1.60
2018-04-27T15:54:52.584Z,1.70
2018-04-27T15:57:21.573Z,1.70
2018-04-27T15:59:49.656Z,2.00
2018-04-27T16:02:18.540Z,1.87
2018-04-27T16:04:48.383Z,2.00
2018-04-27T16:07:16.518Z,1.60
2018-04-27T16:09:45.435Z,1.83
2018-04-27T16:12:13.564Z,1.80
2018-04-27T16:14:41.708Z,1.73
2018-04-27T16:17:09.861Z,1.93
2018-04-27T16:19:38.016Z,1.77
2018-04-27T16:22:06.933Z,1.83
2018-04-27T16:24:35.038Z,2.27
2018-04-27T16:27:03.258Z,1.97
2018-04-27T16:29:32.181Z,1.90
2018-04-27T16:32:00.345Z,1.80
2018-04-27T16:34:28.514Z,2.00
2018-04-27T16:36:56.662Z,1.70
2018-04-27T16:39:25.574Z,1.90
2018-04-27T16:41:53.750Z,1.60
2018-04-27T16:44:21.827Z,1.80
2018-04-27T16:46:49.981Z,1.80
2018-04-27T16:49:18.147Z,1.77
2018-04-27T16:51:47.038Z,1.50
2018-04-27T16:54:15.937Z,1.80
2018-04-27T16:56:44.873Z,1.73
2018-04-27T16:59:13.023Z,2.30
2018-04-27T17:01:41.209Z,2.00
2018-04-27T17:04:09.361Z,1.77
2018-04-27T17:06:37.471Z,1.90
2018-04-27T17:09:05.629Z,1.87
2018-04-27T17:11:33.749Z,2.00
2018-04-27T17:14:02.665Z,2.20
2018-04-27T17:16:30.791Z,1.87
2018-04-27T17:18:58.939Z,1.50
2018-04-27T17:21:27.061Z,1.80
2018-04-27T17:23:55.971Z,1.73
2018-04-27T17:26:24.155Z,1.70
2018-04-27T17:28:52.336Z,1.60
2018-04-27T17:31:20.509Z,1.53
2018-04-27T17:33:48.630Z,1.60
2018-04-27T17:36:16.749Z,1.77
2018-04-27T17:38:44.959Z,1.70
2018-04-27T17:41:13.106Z,1.70
2018-04-27T17:43:41.227Z,1.60
2018-04-27T17:46:09.345Z,1.77
2018-04-27T17:48:37.521Z,1.80
2018-04-27T17:51:05.645Z,2.00
2018-04-27T17:53:33.777Z,1.80
2018-04-27T17:56:01.895Z,1.97
2018-04-27T17:58:30.067Z,1.80
2018-04-27T18:00:58.193Z,1.47
2018-04-27T18:03:26.332Z,1.70
2018-04-27T18:05:55.211Z,1.70
2018-04-27T18:08:24.093Z,1.60
2018-04-27T18:10:52.214Z,1.70
2018-04-27T18:13:20.379Z,1.60
2018-04-27T18:15:48.568Z,1.70
2018-04-27T18:18:16.672Z,1.67
2018-04-27T18:20:44.809Z,1.70
2018-04-27T18:23:13.009Z,1.87
2018-04-27T18:25:41.163Z,1.97
2018-04-27T18:28:10.753Z,2.30
2018-04-27T18:30:38.903Z,2.00
2018-04-27T18:33:07.797Z,2.00
2018-04-27T18:35:36.751Z,1.83
2018-04-27T18:38:04.865Z,2.43
2018-04-27T18:40:33.890Z,2.40
2018-04-27T18:43:02.054Z,2.43
2018-04-27T18:45:30.235Z,2.43
2018-04-27T18:47:58.386Z,1.97
2018-04-27T18:50:28.009Z,2.03
2018-04-27T18:52:56.166Z,2.30
2018-04-27T18:55:25.077Z,2.00
2018-04-27T18:57:53.216Z,2.70
2018-04-27T19:00:21.412Z,2.43
2018-04-27T19:02:49.536Z,2.20
2018-04-27T19:05:17.674Z,2.57
2018-04-27T19:07:45.808Z,2.57
2018-04-27T19:10:14.717Z,1.90
2018-04-27T19:12:43.604Z,2.40
2018-04-27T19:15:12.484Z,2.30
2018-04-27T19:17:41.406Z,2.27
2018-04-27T19:20:09.534Z,2.23
2018-04-27T19:22:37.656Z,2.53
2018-04-27T19:25:05.832Z,2.30
2018-04-27T19:27:33.958Z,2.70
2018-04-27T19:30:02.078Z,2.73
2018-04-27T19:32:30.212Z,2.50
2018-04-27T19:34:59.100Z,2.70
2018-04-27T19:37:28.071Z,2.50
2018-04-27T19:39:56.124Z,2.73
2018-04-27T19:42:24.260Z,2.67
2018-04-27T19:44:53.173Z,2.27
2018-04-27T19:47:21.288Z,2.60
2018-04-27T19:49:49.440Z,2.63
2018-04-27T19:52:17.580Z,2.50
2018-04-27T19:54:45.697Z,2.50
2018-04-27T19:57:13.828Z,2.20
2018-04-27T19:59:41.961Z,2.50
2018-04-27T20:02:10.124Z,2.00
2018-04-27T20:04:38.250Z,2.33
2018-04-27T20:07:06.372Z,2.70
2018-04-27T20:09:34.528Z,2.70
2018-04-27T20:12:02.840Z,2.40
2018-04-27T20:14:34.626Z,2.40
2018-04-27T20:17:05.754Z,2.80
2018-04-27T20:19:40.083Z,2.93
2018-04-27T20:25:04.786Z,2.60
2018-04-27T20:27:45.284Z,2.60
2018-04-27T20:30:15.299Z,2.70
2018-04-27T20:32:46.242Z,2.30
2018-04-27T20:35:15.180Z,2.50
2018-04-27T20:37:45.944Z,2.17
2018-04-27T20:40:14.935Z,2.17
2018-04-27T20:42:43.091Z,2.10
2018-04-27T20:45:18.537Z,2.10
2018-04-27T20:47:47.467Z,1.93
2018-04-27T20:50:15.591Z,2.10
2018-04-27T20:52:44.508Z,2.20
2018-04-27T20:55:15.199Z,2.20
2018-04-27T20:57:43.329Z,2.17
2018-04-27T21:00:11.473Z,2.20
2018-04-27T21:02:43.245Z,2.10
2018-04-27T21:05:11.371Z,2.13
2018-04-27T21:07:39.487Z,2.30
2018-04-27T21:10:07.679Z,2.13
2018-04-27T21:12:35.813Z,2.07
2018-04-27T21:15:04.869Z,2.10
2018-04-27T21:17:32.981Z,2.47
2018-04-27T21:20:01.891Z,2.33
2018-04-27T21:22:30.024Z,2.20
2018-04-27T21:24:58.170Z,2.20
2018-04-27T21:27:26.306Z,2.40
2018-04-27T21:29:55.229Z,2.20
2018-04-27T21:32:23.375Z,2.00
2018-04-27T21:34:52.260Z,2.30
2018-04-27T21:37:21.157Z,2.07
2018-04-27T21:39:50.067Z,2.23
2018-04-27T21:42:21.200Z,2.00
2018-04-27T21:44:49.348Z,2.20
2018-04-27T21:47:25.868Z,2.40
2018-04-27T21:49:54.856Z,2.20
2018-04-27T21:52:27.980Z,1.90
2018-04-27T21:54:56.197Z,2.30
2018-04-27T21:57:29.088Z,2.33
2018-04-27T21:59:59.876Z,2.07
2018-04-27T22:02:32.652Z,2.10
2018-04-27T22:08:14.300Z,2.00
2018-04-27T22:10:42.430Z,2.23
2018-04-27T22:13:10.592Z,2.07
2018-04-27T22:15:38.736Z,2.00
2018-04-27T22:18:06.864Z,2.10
2018-04-27T22:20:43.781Z,2.10
2018-04-27T22:23:11.912Z,2.53
2018-04-27T22:25:44.030Z,2.67
2018-04-27T22:28:12.207Z,2.43
2018-04-27T22:30:41.805Z,2.00
2018-04-27T22:33:31.806Z,2.50
2018-04-27T22:39:19.659Z,2.00
2018-04-27T22:42:11.582Z,2.40
2018-04-27T22:44:57.240Z,2.20
2018-04-27T22:47:32.112Z,2.37
2018-04-27T22:50:02.058Z,2.27
2018-04-27T22:52:33.757Z,2.50
2018-04-27T22:55:01.884Z,2.60
2018-04-27T22:57:36.850Z,2.47
2018-04-27T23:00:12.310Z,2.63
2018-04-27T23:02:40.443Z,2.67
2018-04-27T23:05:11.496Z,2.67
2018-04-27T23:07:41.318Z,2.70
2018-04-27T23:10:10.210Z,2.33
2018-04-27T23:12:41.686Z,2.50
2018-04-27T23:15:09.852Z,2.60
2018-04-27T23:17:38.121Z,2.67
2018-04-27T23:20:10.716Z,2.40
2018-04-27T23:22:40.744Z,2.17
2018-04-27T23:25:09.716Z,2.43
2018-04-27T23:27:37.842Z,2.77
2018-04-27T23:30:07.101Z,2.57
2018-04-27T23:32:37.019Z,2.57
2018-04-27T23:35:05.145Z,2.37
2018-04-27T23:37:35.008Z,2.13
2018-04-27T23:40:03.161Z,2.30
2018-04-27T23:42:31.297Z,2.50
2018-04-27T23:44:59.459Z,2.23
2018-04-27T23:47:27.579Z,2.07
2018-04-27T23:49:55.743Z,2.47
2018-04-27T23:52:24.631Z,2.50
2018-04-27T23:54:52.779Z,2.07
2018-04-27T23:57:20.887Z,2.20
2018-04-27T23:59:50.975Z,1.93
